sensor_id;sensor_type;location;lat;lon;timestamp;pressure;altitude;pressure_sealevel;temperature;humidity
16806;BME280;8520;50.102;20.010;2023-06-14T00:00:04;98142.44;;;16.41;73.35
16806;BME280;8520;50.102;20.010;2023-06-14T00:02:34;98143.94;;;16.42;73.03
16806;BME280;8520;50.102;20.010;2023-06-14T00:05:05;98140.63;;;16.44;73.08
16806;BME280;8520;50.102;20.010;2023-06-14T00:07:34;98146.09;;;16.30;73.82
16806;BME280;8520;50.102;20.010;2023-06-14T00:10:03;98137.41;;;16.40;73.27
16806;BME280;8520;50.102;20.010;2023-06-14T00:12:31;98141.06;;;16.29;74.04
16806;BME280;8520;50.102;20.010;2023-06-14T00:15:00;98141.50;;;16.33;74.54
16806;BME280;8520;50.102;20.010;2023-06-14T00:17:29;98144.94;;;16.20;75.56
16806;BME280;8520;50.102;20.010;2023-06-14T00:19:58;98148.81;;;16.36;74.84
16806;BME280;8520;50.102;20.010;2023-06-14T00:22:28;98144.47;;;16.41;74.99
16806;BME280;8520;50.102;20.010;2023-06-14T00:24:57;98145.97;;;16.42;74.75
16806;BME280;8520;50.102;20.010;2023-06-14T00:27:34;98149.69;;;16.50;74.80
16806;BME280;8520;50.102;20.010;2023-06-14T00:30:02;98135.47;;;16.53;74.80
16806;BME280;8520;50.102;20.010;2023-06-14T00:32:32;98138.09;;;15.61;77.61
16806;BME280;8520;50.102;20.010;2023-06-14T00:35:01;98137.97;;;15.48;79.96
16806;BME280;8520;50.102;20.010;2023-06-14T00:37:30;98131.38;;;15.81;78.67
16806;BME280;8520;50.102;20.010;2023-06-14T00:39:58;98134.25;;;15.34;80.26
16806;BME280;8520;50.102;20.010;2023-06-14T00:42:27;98126.53;;;15.87;78.71
16806;BME280;8520;50.102;20.010;2023-06-14T00:44:56;98130.38;;;16.09;77.69
16806;BME280;8520;50.102;20.010;2023-06-14T00:47:25;98125.47;;;16.20;77.00
16806;BME280;8520;50.102;20.010;2023-06-14T00:49:54;98123.00;;;15.15;80.51
16806;BME280;8520;50.102;20.010;2023-06-14T00:52:23;98113.97;;;15.09;81.96
16806;BME280;8520;50.102;20.010;2023-06-14T00:54:53;98118.59;;;15.31;80.74
16806;BME280;8520;50.102;20.010;2023-06-14T00:57:22;98118.16;;;15.21;81.23
16806;BME280;8520;50.102;20.010;2023-06-14T00:59:50;98116.16;;;15.16;82.01
16806;BME280;8520;50.102;20.010;2023-06-14T01:02:18;98114.06;;;14.87;83.00
16806;BME280;8520;50.102;20.010;2023-06-14T01:04:47;98108.03;;;15.60;80.32
16806;BME280;8520;50.102;20.010;2023-06-14T01:07:23;98109.28;;;15.94;79.08
16806;BME280;8520;50.102;20.010;2023-06-14T01:10:03;98097.03;;;16.03;77.78
16806;BME280;8520;50.102;20.010;2023-06-14T01:12:39;98115.50;;;16.00;78.74
16806;BME280;8520;50.102;20.010;2023-06-14T01:15:10;98104.09;;;16.04;78.04
16806;BME280;8520;50.102;20.010;2023-06-14T01:17:41;98109.84;;;16.12;77.77
16806;BME280;8520;50.102;20.010;2023-06-14T01:20:13;98115.34;;;16.42;77.00
16806;BME280;8520;50.102;20.010;2023-06-14T01:22:50;98112.16;;;16.56;76.02
16806;BME280;8520;50.102;20.010;2023-06-14T01:25:20;98112.06;;;16.62;75.79
16806;BME280;8520;50.102;20.010;2023-06-14T01:27:51;98108.81;;;16.58;75.90
16806;BME280;8520;50.102;20.010;2023-06-14T01:30:21;98109.69;;;16.72;75.34
16806;BME280;8520;50.102;20.010;2023-06-14T01:32:53;98098.53;;;16.72;75.22
16806;BME280;8520;50.102;20.010;2023-06-14T01:35:22;98102.78;;;16.54;75.60
16806;BME280;8520;50.102;20.010;2023-06-14T01:37:53;98097.56;;;16.01;77.59
16806;BME280;8520;50.102;20.010;2023-06-14T01:40:21;98095.06;;;15.73;79.22
16806;BME280;8520;50.102;20.010;2023-06-14T01:42:50;98092.28;;;15.73;79.31
16806;BME280;8520;50.102;20.010;2023-06-14T01:45:20;98082.28;;;15.18;81.48
16806;BME280;8520;50.102;20.010;2023-06-14T01:47:49;98084.81;;;14.80;83.94
16806;BME280;8520;50.102;20.010;2023-06-14T01:50:19;98079.72;;;15.26;83.23
16806;BME280;8520;50.102;20.010;2023-06-14T01:52:47;98082.34;;;15.48;82.13
16806;BME280;8520;50.102;20.010;2023-06-14T01:55:16;98082.66;;;15.74;80.71
16806;BME280;8520;50.102;20.010;2023-06-14T01:57:45;98085.59;;;16.06;79.73
16806;BME280;8520;50.102;20.010;2023-06-14T02:00:14;98088.97;;;15.99;79.37
16806;BME280;8520;50.102;20.010;2023-06-14T02:02:45;98091.16;;;16.06;79.00
16806;BME280;8520;50.102;20.010;2023-06-14T02:05:13;98088.63;;;15.84;79.95
16806;BME280;8520;50.102;20.010;2023-06-14T02:07:42;98095.34;;;15.94;79.70
16806;BME280;8520;50.102;20.010;2023-06-14T02:10:10;98096.34;;;15.37;81.79
16806;BME280;8520;50.102;20.010;2023-06-14T02:12:40;98094.53;;;15.75;81.23
16806;BME280;8520;50.102;20.010;2023-06-14T02:15:09;98093.25;;;16.00;79.70
16806;BME280;8520;50.102;20.010;2023-06-14T02:17:44;98093.34;;;16.19;79.46
16806;BME280;8520;50.102;20.010;2023-06-14T02:20:16;98089.53;;;16.17;78.96
16806;BME280;8520;50.102;20.010;2023-06-14T02:22:45;98092.75;;;15.72;80.25
16806;BME280;8520;50.102;20.010;2023-06-14T02:25:13;98089.50;;;15.98;80.11
16806;BME280;8520;50.102;20.010;2023-06-14T02:27:43;98088.09;;;15.86;80.44
16806;BME280;8520;50.102;20.010;2023-06-14T02:30:12;98085.72;;;15.95;80.37
16806;BME280;8520;50.102;20.010;2023-06-14T02:32:42;98091.75;;;15.99;80.20
16806;BME280;8520;50.102;20.010;2023-06-14T02:35:12;98104.44;;;15.95;80.49
16806;BME280;8520;50.102;20.010;2023-06-14T02:37:40;98101.50;;;16.12;79.99
16806;BME280;8520;50.102;20.010;2023-06-14T02:40:10;98090.78;;;16.21;79.59
16806;BME280;8520;50.102;20.010;2023-06-14T02:42:38;98094.94;;;16.09;79.82
16806;BME280;8520;50.102;20.010;2023-06-14T02:45:08;98088.44;;;16.25;79.26
16806;BME280;8520;50.102;20.010;2023-06-14T02:47:37;98084.75;;;16.36;78.75
16806;BME280;8520;50.102;20.010;2023-06-14T02:50:07;98086.94;;;16.24;79.00
16806;BME280;8520;50.102;20.010;2023-06-14T02:52:35;98082.81;;;16.31;79.45
16806;BME280;8520;50.102;20.010;2023-06-14T02:55:04;98083.72;;;16.39;78.45
16806;BME280;8520;50.102;20.010;2023-06-14T02:57:33;98090.53;;;16.19;79.54
16806;BME280;8520;50.102;20.010;2023-06-14T03:00:02;98086.53;;;16.39;78.88
16806;BME280;8520;50.102;20.010;2023-06-14T03:02:35;98085.78;;;16.14;79.44
16806;BME280;8520;50.102;20.010;2023-06-14T03:05:04;98083.91;;;16.22;79.27
16806;BME280;8520;50.102;20.010;2023-06-14T03:07:34;98084.81;;;16.12;80.36
16806;BME280;8520;50.102;20.010;2023-06-14T03:10:09;98082.06;;;16.06;80.06
16806;BME280;8520;50.102;20.010;2023-06-14T03:12:40;98087.22;;;16.21;80.18
16806;BME280;8520;50.102;20.010;2023-06-14T03:15:10;98081.34;;;16.24;79.87
16806;BME280;8520;50.102;20.010;2023-06-14T03:17:45;98085.06;;;16.08;80.52
16806;BME280;8520;50.102;20.010;2023-06-14T03:20:16;98092.19;;;16.28;79.93
16806;BME280;8520;50.102;20.010;2023-06-14T03:22:46;98082.44;;;16.40;79.54
16806;BME280;8520;50.102;20.010;2023-06-14T03:25:15;98083.59;;;16.50;79.13
16806;BME280;8520;50.102;20.010;2023-06-14T03:27:45;98089.75;;;16.43;79.51
16806;BME280;8520;50.102;20.010;2023-06-14T03:30:14;98089.66;;;16.30;79.65
16806;BME280;8520;50.102;20.010;2023-06-14T03:32:47;98081.13;;;15.98;80.48
16806;BME280;8520;50.102;20.010;2023-06-14T03:35:15;98093.25;;;16.00;80.96
16806;BME280;8520;50.102;20.010;2023-06-14T03:37:47;98082.75;;;15.58;82.87
16806;BME280;8520;50.102;20.010;2023-06-14T03:40:17;98086.88;;;15.81;82.87
16806;BME280;8520;50.102;20.010;2023-06-14T03:42:49;98087.84;;;16.08;81.85
16806;BME280;8520;50.102;20.010;2023-06-14T03:45:18;98086.66;;;16.03;81.43
16806;BME280;8520;50.102;20.010;2023-06-14T03:47:48;98094.59;;;16.18;81.54
16806;BME280;8520;50.102;20.010;2023-06-14T03:50:17;98095.50;;;16.26;81.40
16806;BME280;8520;50.102;20.010;2023-06-14T03:52:47;98095.72;;;16.53;80.20
16806;BME280;8520;50.102;20.010;2023-06-14T03:55:16;98088.16;;;16.72;79.52
16806;BME280;8520;50.102;20.010;2023-06-14T03:57:47;98093.44;;;16.76;79.40
16806;BME280;8520;50.102;20.010;2023-06-14T04:00:17;98095.06;;;16.22;81.13
16806;BME280;8520;50.102;20.010;2023-06-14T04:02:46;98102.56;;;16.52;80.50
16806;BME280;8520;50.102;20.010;2023-06-14T04:05:16;98106.72;;;15.96;82.06
16806;BME280;8520;50.102;20.010;2023-06-14T04:07:48;98103.22;;;16.39;81.79
16806;BME280;8520;50.102;20.010;2023-06-14T04:10:17;98100.69;;;16.17;81.89
16806;BME280;8520;50.102;20.010;2023-06-14T04:12:47;98107.63;;;15.80;83.19
16806;BME280;8520;50.102;20.010;2023-06-14T04:15:16;98105.63;;;16.05;83.36
16806;BME280;8520;50.102;20.010;2023-06-14T04:17:51;98101.94;;;15.61;85.09
16806;BME280;8520;50.102;20.010;2023-06-14T04:20:23;98100.09;;;15.75;84.65
16806;BME280;8520;50.102;20.010;2023-06-14T04:22:52;98108.06;;;15.54;85.04
16806;BME280;8520;50.102;20.010;2023-06-14T04:25:20;98105.13;;;15.41;86.55
16806;BME280;8520;50.102;20.010;2023-06-14T04:27:51;98102.91;;;15.64;85.86
16806;BME280;8520;50.102;20.010;2023-06-14T04:30:21;98106.44;;;15.34;86.56
16806;BME280;8520;50.102;20.010;2023-06-14T04:32:54;98100.13;;;15.64;86.46
16806;BME280;8520;50.102;20.010;2023-06-14T04:35:25;98105.09;;;16.31;83.99
16806;BME280;8520;50.102;20.010;2023-06-14T04:37:55;98107.69;;;16.48;83.38
16806;BME280;8520;50.102;20.010;2023-06-14T04:40:24;98107.19;;;16.25;83.83
16806;BME280;8520;50.102;20.010;2023-06-14T04:42:53;98105.72;;;16.43;83.54
16806;BME280;8520;50.102;20.010;2023-06-14T04:45:21;98102.34;;;16.50;83.20
16806;BME280;8520;50.102;20.010;2023-06-14T04:47:50;98101.84;;;16.70;81.79
16806;BME280;8520;50.102;20.010;2023-06-14T04:50:28;98109.47;;;16.70;82.25
16806;BME280;8520;50.102;20.010;2023-06-14T04:52:57;98110.75;;;17.06;81.72
16806;BME280;8520;50.102;20.010;2023-06-14T04:55:27;98116.38;;;17.01;80.32
16806;BME280;8520;50.102;20.010;2023-06-14T04:57:57;98109.63;;;17.15;80.63
16806;BME280;8520;50.102;20.010;2023-06-14T05:00:26;98109.91;;;17.30;79.70
16806;BME280;8520;50.102;20.010;2023-06-14T05:02:54;98106.03;;;17.33;79.39
16806;BME280;8520;50.102;20.010;2023-06-14T05:05:23;98098.34;;;17.39;79.56
16806;BME280;8520;50.102;20.010;2023-06-14T05:07:53;98106.38;;;17.30;78.99
16806;BME280;8520;50.102;20.010;2023-06-14T05:10:21;98112.13;;;17.51;78.06
16806;BME280;8520;50.102;20.010;2023-06-14T05:12:50;98117.13;;;17.71;77.71
16806;BME280;8520;50.102;20.010;2023-06-14T05:15:19;98119.41;;;17.72;77.48
16806;BME280;8520;50.102;20.010;2023-06-14T05:17:52;98123.38;;;17.77;76.77
16806;BME280;8520;50.102;20.010;2023-06-14T05:20:22;98114.59;;;17.86;76.27
16806;BME280;8520;50.102;20.010;2023-06-14T05:22:53;98118.03;;;17.92;76.23
16806;BME280;8520;50.102;20.010;2023-06-14T05:25:23;98117.19;;;17.97;75.68
16806;BME280;8520;50.102;20.010;2023-06-14T05:27:51;98110.03;;;18.02;75.78
16806;BME280;8520;50.102;20.010;2023-06-14T05:30:20;98122.03;;;17.84;76.39
16806;BME280;8520;50.102;20.010;2023-06-14T05:32:48;98116.22;;;17.95;75.67
16806;BME280;8520;50.102;20.010;2023-06-14T05:35:17;98117.63;;;17.88;76.15
16806;BME280;8520;50.102;20.010;2023-06-14T05:37:45;98119.78;;;17.63;76.49
16806;BME280;8520;50.102;20.010;2023-06-14T05:40:16;98120.72;;;17.53;76.70
16806;BME280;8520;50.102;20.010;2023-06-14T05:42:45;98122.06;;;17.65;76.48
16806;BME280;8520;50.102;20.010;2023-06-14T05:45:14;98129.81;;;17.72;76.46
16806;BME280;8520;50.102;20.010;2023-06-14T05:47:43;98126.75;;;17.57;76.26
16806;BME280;8520;50.102;20.010;2023-06-14T05:50:11;98128.00;;;17.56;76.64
16806;BME280;8520;50.102;20.010;2023-06-14T05:52:39;98137.03;;;17.62;76.67
16806;BME280;8520;50.102;20.010;2023-06-14T05:55:08;98137.56;;;17.47;76.81
16806;BME280;8520;50.102;20.010;2023-06-14T05:57:41;98138.22;;;17.34;77.73
16806;BME280;8520;50.102;20.010;2023-06-14T06:00:10;98142.47;;;17.22;76.99
16806;BME280;8520;50.102;20.010;2023-06-14T06:02:42;98128.00;;;17.05;78.28
16806;BME280;8520;50.102;20.010;2023-06-14T06:05:11;98138.63;;;17.25;77.31
16806;BME280;8520;50.102;20.010;2023-06-14T06:07:40;98138.41;;;17.55;76.65
16806;BME280;8520;50.102;20.010;2023-06-14T06:10:11;98143.94;;;17.42;76.88
16806;BME280;8520;50.102;20.010;2023-06-14T06:12:41;98140.91;;;17.59;76.37
16806;BME280;8520;50.102;20.010;2023-06-14T06:15:10;98144.84;;;17.50;76.92
16806;BME280;8520;50.102;20.010;2023-06-14T06:17:39;98145.38;;;17.67;76.65
16806;BME280;8520;50.102;20.010;2023-06-14T06:20:21;98149.41;;;17.85;76.15
16806;BME280;8520;50.102;20.010;2023-06-14T06:22:55;98148.66;;;17.85;76.45
16806;BME280;8520;50.102;20.010;2023-06-14T06:25:23;98140.41;;;18.06;75.92
16806;BME280;8520;50.102;20.010;2023-06-14T06:27:54;98146.97;;;18.08;75.34
16806;BME280;8520;50.102;20.010;2023-06-14T06:30:24;98144.09;;;17.82;75.95
16806;BME280;8520;50.102;20.010;2023-06-14T06:32:53;98148.06;;;17.73;76.68
16806;BME280;8520;50.102;20.010;2023-06-14T06:35:23;98150.28;;;18.20;75.50
16806;BME280;8520;50.102;20.010;2023-06-14T06:37:51;98152.81;;;17.78;76.28
16806;BME280;8520;50.102;20.010;2023-06-14T06:40:19;98161.81;;;17.33;77.75
16806;BME280;8520;50.102;20.010;2023-06-14T06:42:47;98163.88;;;17.33;78.65
16806;BME280;8520;50.102;20.010;2023-06-14T06:45:20;98169.94;;;17.69;76.54
16806;BME280;8520;50.102;20.010;2023-06-14T06:47:51;98174.03;;;17.68;75.45
16806;BME280;8520;50.102;20.010;2023-06-14T06:50:20;98176.53;;;17.34;77.65
16806;BME280;8520;50.102;20.010;2023-06-14T06:52:50;98179.88;;;17.64;77.20
16806;BME280;8520;50.102;20.010;2023-06-14T06:55:18;98175.81;;;17.84;76.37
16806;BME280;8520;50.102;20.010;2023-06-14T06:57:47;98180.66;;;17.65;77.24
16806;BME280;8520;50.102;20.010;2023-06-14T07:00:17;98182.34;;;17.87;76.57
16806;BME280;8520;50.102;20.010;2023-06-14T07:02:47;98184.81;;;17.90;76.46
16806;BME280;8520;50.102;20.010;2023-06-14T07:05:16;98182.22;;;17.79;76.37
16806;BME280;8520;50.102;20.010;2023-06-14T07:07:45;98181.16;;;17.63;77.36
16806;BME280;8520;50.102;20.010;2023-06-14T07:10:13;98179.03;;;17.88;76.62
16806;BME280;8520;50.102;20.010;2023-06-14T07:12:41;98185.03;;;17.92;76.04
16806;BME280;8520;50.102;20.010;2023-06-14T07:15:10;98188.75;;;17.82;76.70
16806;BME280;8520;50.102;20.010;2023-06-14T07:17:38;98194.13;;;17.80;76.91
16806;BME280;8520;50.102;20.010;2023-06-14T07:20:09;98192.78;;;17.99;75.86
16806;BME280;8520;50.102;20.010;2023-06-14T07:22:40;98198.84;;;18.17;75.66
16806;BME280;8520;50.102;20.010;2023-06-14T07:25:12;98201.31;;;18.07;76.26
16806;BME280;8520;50.102;20.010;2023-06-14T07:27:45;98204.00;;;18.13;76.18
16806;BME280;8520;50.102;20.010;2023-06-14T07:30:13;98201.91;;;18.00;76.29
16806;BME280;8520;50.102;20.010;2023-06-14T07:32:42;98205.38;;;17.74;76.69
16806;BME280;8520;50.102;20.010;2023-06-14T07:35:11;98208.16;;;17.74;77.16
16806;BME280;8520;50.102;20.010;2023-06-14T07:37:40;98212.38;;;17.81;76.72
16806;BME280;8520;50.102;20.010;2023-06-14T07:40:10;98205.88;;;17.91;76.67
16806;BME280;8520;50.102;20.010;2023-06-14T07:42:39;98204.84;;;17.00;79.17
16806;BME280;8520;50.102;20.010;2023-06-14T07:45:08;98211.38;;;16.59;82.09
16806;BME280;8520;50.102;20.010;2023-06-14T07:47:36;98211.97;;;16.77;81.41
16806;BME280;8520;50.102;20.010;2023-06-14T07:50:05;98222.03;;;17.04;81.30
16806;BME280;8520;50.102;20.010;2023-06-14T07:52:37;98213.44;;;16.83;81.11
16806;BME280;8520;50.102;20.010;2023-06-14T07:55:05;98222.38;;;16.76;81.09
16806;BME280;8520;50.102;20.010;2023-06-14T07:57:34;98221.50;;;17.06;81.33
16806;BME280;8520;50.102;20.010;2023-06-14T08:00:03;98224.25;;;16.62;81.91
16806;BME280;8520;50.102;20.010;2023-06-14T08:02:39;98218.81;;;17.19;80.80
16806;BME280;8520;50.102;20.010;2023-06-14T08:05:09;98214.75;;;17.39;79.57
16806;BME280;8520;50.102;20.010;2023-06-14T08:07:39;98218.34;;;16.47;83.03
16806;BME280;8520;50.102;20.010;2023-06-14T08:10:08;98218.81;;;16.51;83.02
16806;BME280;8520;50.102;20.010;2023-06-14T08:12:37;98219.25;;;16.31;84.08
16806;BME280;8520;50.102;20.010;2023-06-14T08:15:06;98216.06;;;16.46;84.24
16806;BME280;8520;50.102;20.010;2023-06-14T08:17:42;98212.06;;;16.41;83.50
16806;BME280;8520;50.102;20.010;2023-06-14T08:20:11;98219.44;;;16.63;83.94
16806;BME280;8520;50.102;20.010;2023-06-14T08:22:41;98215.75;;;16.79;82.98
16806;BME280;8520;50.102;20.010;2023-06-14T08:25:09;98214.09;;;16.89;82.72
16806;BME280;8520;50.102;20.010;2023-06-14T08:27:39;98217.28;;;16.50;83.10
16806;BME280;8520;50.102;20.010;2023-06-14T08:30:09;98215.06;;;15.89;85.37
16806;BME280;8520;50.102;20.010;2023-06-14T08:32:37;98215.19;;;15.66;87.46
16806;BME280;8520;50.102;20.010;2023-06-14T08:35:06;98214.88;;;16.11;86.26
16806;BME280;8520;50.102;20.010;2023-06-14T08:37:38;98214.63;;;16.39;85.07
16806;BME280;8520;50.102;20.010;2023-06-14T08:40:18;98225.41;;;16.24;85.85
16806;BME280;8520;50.102;20.010;2023-06-14T08:42:48;98227.06;;;16.87;83.89
16806;BME280;8520;50.102;20.010;2023-06-14T08:45:18;98225.81;;;17.07;82.64
16806;BME280;8520;50.102;20.010;2023-06-14T08:47:46;98227.56;;;17.47;81.75
16806;BME280;8520;50.102;20.010;2023-06-14T08:50:20;98229.69;;;17.23;81.75
16806;BME280;8520;50.102;20.010;2023-06-14T08:52:56;98228.09;;;16.05;86.71
16806;BME280;8520;50.102;20.010;2023-06-14T08:55:29;98237.72;;;16.04;85.95
16806;BME280;8520;50.102;20.010;2023-06-14T08:58:03;98243.38;;;16.23;85.10
16806;BME280;8520;50.102;20.010;2023-06-14T09:00:32;98240.78;;;16.55;85.17
16806;BME280;8520;50.102;20.010;2023-06-14T09:03:03;98251.97;;;16.79;84.29
16806;BME280;8520;50.102;20.010;2023-06-14T09:05:32;98251.41;;;16.32;85.17
16806;BME280;8520;50.102;20.010;2023-06-14T09:08:00;98249.06;;;16.36;86.00
16806;BME280;8520;50.102;20.010;2023-06-14T09:10:34;98251.25;;;16.49;85.26
16806;BME280;8520;50.102;20.010;2023-06-14T09:13:05;98253.38;;;16.37;84.33
16806;BME280;8520;50.102;20.010;2023-06-14T09:15:34;98250.81;;;16.09;86.72
16806;BME280;8520;50.102;20.010;2023-06-14T09:18:03;98258.66;;;16.41;86.05
16806;BME280;8520;50.102;20.010;2023-06-14T09:20:33;98257.69;;;16.38;85.77
16806;BME280;8520;50.102;20.010;2023-06-14T09:23:01;98254.66;;;16.36;86.41
16806;BME280;8520;50.102;20.010;2023-06-14T09:25:41;98262.31;;;16.30;87.01
16806;BME280;8520;50.102;20.010;2023-06-14T09:28:10;98264.31;;;17.08;84.17
16806;BME280;8520;50.102;20.010;2023-06-14T09:30:38;98264.69;;;16.45;85.43
16806;BME280;8520;50.102;20.010;2023-06-14T09:33:07;98272.47;;;15.45;90.03
16806;BME280;8520;50.102;20.010;2023-06-14T09:35:35;98267.19;;;15.88;88.25
16806;BME280;8520;50.102;20.010;2023-06-14T09:38:04;98259.03;;;16.26;87.71
16806;BME280;8520;50.102;20.010;2023-06-14T09:40:35;98261.38;;;16.46;85.46
16806;BME280;8520;50.102;20.010;2023-06-14T09:43:06;98259.94;;;15.74;86.98
16806;BME280;8520;50.102;20.010;2023-06-14T09:45:35;98257.59;;;15.37;89.77
16806;BME280;8520;50.102;20.010;2023-06-14T09:48:06;98264.06;;;15.97;88.03
16806;BME280;8520;50.102;20.010;2023-06-14T09:50:35;98260.69;;;15.28;90.46
16806;BME280;8520;50.102;20.010;2023-06-14T09:53:06;98257.47;;;15.59;89.83
16806;BME280;8520;50.102;20.010;2023-06-14T09:55:37;98254.63;;;15.76;89.85
16806;BME280;8520;50.102;20.010;2023-06-14T09:58:08;98263.88;;;15.90;89.79
16806;BME280;8520;50.102;20.010;2023-06-14T10:00:39;98260.28;;;15.01;92.60
16806;BME280;8520;50.102;20.010;2023-06-14T10:03:12;98253.78;;;14.71;94.79
16806;BME280;8520;50.102;20.010;2023-06-14T10:05:44;98252.47;;;14.94;94.80
16806;BME280;8520;50.102;20.010;2023-06-14T10:08:15;98252.16;;;15.61;92.71
16806;BME280;8520;50.102;20.010;2023-06-14T10:10:47;98255.38;;;15.76;90.25
16806;BME280;8520;50.102;20.010;2023-06-14T10:13:16;98260.03;;;15.57;91.06
16806;BME280;8520;50.102;20.010;2023-06-14T10:15:52;98259.00;;;16.01;89.75
16806;BME280;8520;50.102;20.010;2023-06-14T10:18:31;98262.78;;;16.34;87.78
16806;BME280;8520;50.102;20.010;2023-06-14T10:21:05;98254.81;;;15.84;89.77
16806;BME280;8520;50.102;20.010;2023-06-14T10:23:39;98252.41;;;15.05;93.44
16806;BME280;8520;50.102;20.010;2023-06-14T10:26:18;98256.13;;;15.25;92.51
16806;BME280;8520;50.102;20.010;2023-06-14T10:28:56;98263.00;;;15.65;92.38
16806;BME280;8520;50.102;20.010;2023-06-14T10:31:40;98259.56;;;14.84;93.38
16806;BME280;8520;50.102;20.010;2023-06-14T10:34:09;98265.50;;;15.21;93.94
16806;BME280;8520;50.102;20.010;2023-06-14T10:36:38;98254.75;;;14.90;94.62
16806;BME280;8520;50.102;20.010;2023-06-14T10:39:12;98243.81;;;15.09;94.44
16806;BME280;8520;50.102;20.010;2023-06-14T10:41:51;98253.19;;;15.53;94.00
16806;BME280;8520;50.102;20.010;2023-06-14T10:44:43;98253.09;;;15.28;94.44
16806;BME280;8520;50.102;20.010;2023-06-14T10:47:21;98255.16;;;15.74;92.74
16806;BME280;8520;50.102;20.010;2023-06-14T10:49:52;98258.63;;;15.81;90.46
16806;BME280;8520;50.102;20.010;2023-06-14T10:52:22;98257.28;;;15.93;90.16
16806;BME280;8520;50.102;20.010;2023-06-14T10:57:42;98257.72;;;15.61;92.97
16806;BME280;8520;50.102;20.010;2023-06-14T11:00:19;98246.66;;;15.50;93.99
16806;BME280;8520;50.102;20.010;2023-06-14T11:03:20;98243.03;;;15.61;94.14
16806;BME280;8520;50.102;20.010;2023-06-14T11:05:56;98241.25;;;15.22;94.79
16806;BME280;8520;50.102;20.010;2023-06-14T11:11:22;98243.72;;;15.37;94.85
16806;BME280;8520;50.102;20.010;2023-06-14T11:13:52;98228.72;;;15.45;94.31
16806;BME280;8520;50.102;20.010;2023-06-14T11:16:26;98234.09;;;15.32;94.67
16806;BME280;8520;50.102;20.010;2023-06-14T11:18:54;98238.06;;;15.48;92.33
16806;BME280;8520;50.102;20.010;2023-06-14T11:21:24;98234.88;;;15.27;95.19
16806;BME280;8520;50.102;20.010;2023-06-14T11:23:58;98240.22;;;16.08;92.76
16806;BME280;8520;50.102;20.010;2023-06-14T11:26:27;98238.06;;;15.89;92.70
16806;BME280;8520;50.102;20.010;2023-06-14T11:28:58;98229.34;;;16.34;91.84
16806;BME280;8520;50.102;20.010;2023-06-14T11:31:28;98228.69;;;16.77;87.37
16806;BME280;8520;50.102;20.010;2023-06-14T11:33:58;98230.28;;;16.42;89.28
16806;BME280;8520;50.102;20.010;2023-06-14T11:36:27;98236.44;;;16.59;87.78
16806;BME280;8520;50.102;20.010;2023-06-14T11:38:58;98230.84;;;16.35;87.58
16806;BME280;8520;50.102;20.010;2023-06-14T11:41:32;98227.34;;;16.59;87.61
16806;BME280;8520;50.102;20.010;2023-06-14T11:44:03;98230.84;;;16.11;89.22
16806;BME280;8520;50.102;20.010;2023-06-14T11:46:32;98231.66;;;16.84;87.90
16806;BME280;8520;50.102;20.010;2023-06-14T11:49:01;98235.06;;;16.96;85.11
16806;BME280;8520;50.102;20.010;2023-06-14T11:51:32;98237.91;;;16.90;85.31
16806;BME280;8520;50.102;20.010;2023-06-14T11:54:02;98234.66;;;17.30;84.38
16806;BME280;8520;50.102;20.010;2023-06-14T11:56:31;98224.03;;;17.98;81.22
16806;BME280;8520;50.102;20.010;2023-06-14T11:59:01;98222.13;;;17.74;83.72
16806;BME280;8520;50.102;20.010;2023-06-14T12:01:32;98217.47;;;18.27;81.95
16806;BME280;8520;50.102;20.010;2023-06-14T12:04:00;98218.31;;;18.22;78.99
16806;BME280;8520;50.102;20.010;2023-06-14T12:06:30;98210.94;;;18.51;80.59
16806;BME280;8520;50.102;20.010;2023-06-14T12:09:04;98214.94;;;18.56;77.46
16806;BME280;8520;50.102;20.010;2023-06-14T12:11:34;98219.78;;;19.08;72.98
16806;BME280;8520;50.102;20.010;2023-06-14T12:14:04;98215.66;;;18.30;78.39
16806;BME280;8520;50.102;20.010;2023-06-14T12:16:35;98218.34;;;18.36;77.83
16806;BME280;8520;50.102;20.010;2023-06-14T12:19:13;98218.81;;;19.06;74.96
16806;BME280;8520;50.102;20.010;2023-06-14T12:21:42;98220.31;;;19.07;74.05
16806;BME280;8520;50.102;20.010;2023-06-14T12:24:12;98215.41;;;18.15;76.51
16806;BME280;8520;50.102;20.010;2023-06-14T12:26:41;98221.72;;;17.64;77.72
16806;BME280;8520;50.102;20.010;2023-06-14T12:29:09;98233.50;;;17.19;77.79
16806;BME280;8520;50.102;20.010;2023-06-14T12:31:41;98220.84;;;17.56;77.13
16806;BME280;8520;50.102;20.010;2023-06-14T12:34:10;98224.22;;;18.77;76.38
16806;BME280;8520;50.102;20.010;2023-06-14T12:36:38;98223.75;;;19.94;72.22
16806;BME280;8520;50.102;20.010;2023-06-14T12:39:11;98221.00;;;20.02;71.13
16806;BME280;8520;50.102;20.010;2023-06-14T12:41:40;98220.16;;;19.52;74.02
16806;BME280;8520;50.102;20.010;2023-06-14T12:44:10;98220.94;;;20.93;70.14
16806;BME280;8520;50.102;20.010;2023-06-14T12:46:38;98215.72;;;20.61;71.46
16806;BME280;8520;50.102;20.010;2023-06-14T12:49:10;98213.34;;;19.61;69.95
16806;BME280;8520;50.102;20.010;2023-06-14T12:51:40;98198.22;;;20.47;70.20
16806;BME280;8520;50.102;20.010;2023-06-14T12:54:09;98216.78;;;19.06;73.85
16806;BME280;8520;50.102;20.010;2023-06-14T12:56:37;98216.88;;;18.61;73.59
16806;BME280;8520;50.102;20.010;2023-06-14T12:59:06;98196.53;;;18.47;78.22
16806;BME280;8520;50.102;20.010;2023-06-14T13:01:34;98194.13;;;19.65;76.23
16806;BME280;8520;50.102;20.010;2023-06-14T13:04:02;98206.25;;;19.81;71.48
16806;BME280;8520;50.102;20.010;2023-06-14T13:06:32;98196.75;;;19.02;74.39
16806;BME280;8520;50.102;20.010;2023-06-14T13:09:00;98204.81;;;18.40;73.39
16806;BME280;8520;50.102;20.010;2023-06-14T13:11:30;98206.69;;;18.05;72.57
16806;BME280;8520;50.102;20.010;2023-06-14T13:13:59;98185.50;;;18.95;73.84
16806;BME280;8520;50.102;20.010;2023-06-14T13:16:43;98179.88;;;18.55;71.70
16806;BME280;8520;50.102;20.010;2023-06-14T13:19:11;98192.28;;;18.59;72.12
16806;BME280;8520;50.102;20.010;2023-06-14T13:21:41;98179.16;;;18.81;74.36